sensor_id;sensor_type;location;lat;lon;timestamp;pressure;altitude;pressure_sealevel;temperature;humidity
65384;BME280;51986;52.788;41.368;2023-12-14T00:01:18;100372.56;;;-10.87;53.77
65384;BME280;51986;52.788;41.368;2023-12-14T00:03:45;100378.34;;;-10.91;53.83
65384;BME280;51986;52.788;41.368;2023-12-14T00:06:13;100347.53;;;-10.78;53.11
65384;BME280;51986;52.788;41.368;2023-12-14T00:08:40;100370.03;;;-10.87;53.41
65384;BME280;51986;52.788;41.368;2023-12-14T00:11:09;100360.44;;;-10.56;53.00
65384;BME280;51986;52.788;41.368;2023-12-14T00:13:37;100370.22;;;-10.65;53.23
65384;BME280;51986;52.788;41.368;2023-12-14T00:16:05;100378.38;;;-10.39;53.63
65384;BME280;51986;52.788;41.368;2023-12-14T00:18:32;100384.38;;;-10.57;53.38
65384;BME280;51986;52.788;41.368;2023-12-14T00:21:00;100380.53;;;-10.71;54.15
65384;BME280;51986;52.788;41.368;2023-12-14T00:23:27;100350.47;;;-10.58;53.57
65384;BME280;51986;52.788;41.368;2023-12-14T00:25:54;100381.50;;;-10.49;54.06
65384;BME280;51986;52.788;41.368;2023-12-14T00:28:21;100359.78;;;-10.23;52.98
65384;BME280;51986;52.788;41.368;2023-12-14T00:30:51;100351.94;;;-10.33;52.52
65384;BME280;51986;52.788;41.368;2023-12-14T00:33:18;100327.31;;;-10.68;52.51
65384;BME280;51986;52.788;41.368;2023-12-14T00:35:45;100378.06;;;-10.55;54.03
65384;BME280;51986;52.788;41.368;2023-12-14T00:38:13;100373.13;;;-10.33;53.63
65384;BME280;51986;52.788;41.368;2023-12-14T00:40:40;100356.91;;;-10.67;53.27
65384;BME280;51986;52.788;41.368;2023-12-14T00:43:07;100361.41;;;-10.45;52.97
65384;BME280;51986;52.788;41.368;2023-12-14T00:45:34;100336.81;;;-10.51;53.67
65384;BME280;51986;52.788;41.368;2023-12-14T00:48:01;100378.16;;;-10.49;52.58
65384;BME280;51986;52.788;41.368;2023-12-14T00:50:28;100341.78;;;-10.45;53.58
65384;BME280;51986;52.788;41.368;2023-12-14T00:52:55;100371.53;;;-10.50;53.44
65384;BME280;51986;52.788;41.368;2023-12-14T00:55:22;100345.72;;;-10.66;53.68
65384;BME280;51986;52.788;41.368;2023-12-14T00:57:49;100363.91;;;-10.74;53.49
65384;BME280;51986;52.788;41.368;2023-12-14T01:00:16;100327.31;;;-10.68;53.48
65384;BME280;51986;52.788;41.368;2023-12-14T01:02:43;100329.53;;;-10.60;52.94
65384;BME280;51986;52.788;41.368;2023-12-14T01:05:10;100326.06;;;-10.53;53.76
65384;BME280;51986;52.788;41.368;2023-12-14T01:07:37;100333.09;;;-10.84;54.26
65384;BME280;51986;52.788;41.368;2023-12-14T01:10:05;100350.28;;;-10.68;54.46
65384;BME280;51986;52.788;41.368;2023-12-14T01:12:32;100326.47;;;-10.85;53.49
65384;BME280;51986;52.788;41.368;2023-12-14T01:15:00;100350.38;;;-10.63;53.94
65384;BME280;51986;52.788;41.368;2023-12-14T01:17:27;100357.47;;;-10.65;54.53
65384;BME280;51986;52.788;41.368;2023-12-14T01:19:54;100296.53;;;-10.78;53.45
65384;BME280;51986;52.788;41.368;2023-12-14T01:22:21;100318.31;;;-10.59;54.05
65384;BME280;51986;52.788;41.368;2023-12-14T01:24:48;100332.25;;;-10.49;53.67
65384;BME280;51986;52.788;41.368;2023-12-14T01:27:15;100340.94;;;-10.62;54.08
65384;BME280;51986;52.788;41.368;2023-12-14T01:29:43;100350.66;;;-10.47;54.42
65384;BME280;51986;52.788;41.368;2023-12-14T01:32:10;100357.78;;;-10.49;53.83
65384;BME280;51986;52.788;41.368;2023-12-14T01:34:37;100331.50;;;-10.50;54.29
65384;BME280;51986;52.788;41.368;2023-12-14T01:37:05;100356.66;;;-10.53;54.87
65384;BME280;51986;52.788;41.368;2023-12-14T01:39:31;100363.22;;;-10.58;54.67
65384;BME280;51986;52.788;41.368;2023-12-14T01:41:59;100368.34;;;-10.29;54.35
65384;BME280;51986;52.788;41.368;2023-12-14T01:44:26;100324.31;;;-10.36;53.84
65384;BME280;51986;52.788;41.368;2023-12-14T01:46:52;100346.81;;;-10.21;53.55
65384;BME280;51986;52.788;41.368;2023-12-14T01:49:19;100333.91;;;-10.43;54.69
65384;BME280;51986;52.788;41.368;2023-12-14T01:51:47;100368.06;;;-10.44;53.98
65384;BME280;51986;52.788;41.368;2023-12-14T01:54:14;100342.09;;;-10.13;54.32
65384;BME280;51986;52.788;41.368;2023-12-14T01:56:41;100384.19;;;-10.27;53.98
65384;BME280;51986;52.788;41.368;2023-12-14T01:59:08;100348.19;;;-10.42;53.78
65384;BME280;51986;52.788;41.368;2023-12-14T02:01:42;100325.94;;;-10.18;53.89
65384;BME280;51986;52.788;41.368;2023-12-14T02:04:10;100337.91;;;-10.19;53.49
65384;BME280;51986;52.788;41.368;2023-12-14T02:06:38;100365.72;;;-10.06;53.97
65384;BME280;51986;52.788;41.368;2023-12-14T02:09:05;100348.81;;;-10.23;53.40
65384;BME280;51986;52.788;41.368;2023-12-14T02:11:32;100301.34;;;-10.53;53.90
65384;BME280;51986;52.788;41.368;2023-12-14T02:14:04;100342.00;;;-10.18;53.69
65384;BME280;51986;52.788;41.368;2023-12-14T02:16:32;100354.22;;;-10.20;53.91
65384;BME280;51986;52.788;41.368;2023-12-14T02:18:59;100371.03;;;-10.36;54.13
65384;BME280;51986;52.788;41.368;2023-12-14T02:21:26;100332.44;;;-10.39;54.61
65384;BME280;51986;52.788;41.368;2023-12-14T02:23:53;100368.69;;;-10.37;54.22
65384;BME280;51986;52.788;41.368;2023-12-14T02:26:20;100373.28;;;-10.51;54.92
65384;BME280;51986;52.788;41.368;2023-12-14T02:28:48;100353.88;;;-10.52;54.78
65384;BME280;51986;52.788;41.368;2023-12-14T02:31:15;100345.47;;;-10.52;54.51
65384;BME280;51986;52.788;41.368;2023-12-14T02:33:42;100351.22;;;-10.45;55.22
65384;BME280;51986;52.788;41.368;2023-12-14T02:36:09;100341.13;;;-10.52;54.70
65384;BME280;51986;52.788;41.368;2023-12-14T02:38:36;100351.78;;;-10.15;54.27
65384;BME280;51986;52.788;41.368;2023-12-14T02:41:04;100351.22;;;-10.17;53.82
65384;BME280;51986;52.788;41.368;2023-12-14T02:43:31;100363.56;;;-10.25;53.32
65384;BME280;51986;52.788;41.368;2023-12-14T02:45:58;100364.75;;;-10.45;54.09
65384;BME280;51986;52.788;41.368;2023-12-14T02:48:25;100330.34;;;-10.42;54.05
65384;BME280;51986;52.788;41.368;2023-12-14T02:50:53;100371.03;;;-10.36;55.00
65384;BME280;51986;52.788;41.368;2023-12-14T02:53:20;100345.28;;;-10.63;54.79
65384;BME280;51986;52.788;41.368;2023-12-14T02:55:47;100372.06;;;-10.48;54.67
65384;BME280;51986;52.788;41.368;2023-12-14T02:58:15;100365.72;;;-10.34;54.75
65384;BME280;51986;52.788;41.368;2023-12-14T03:00:42;100363.47;;;-10.31;54.80
65384;BME280;51986;52.788;41.368;2023-12-14T03:03:09;100327.75;;;-10.02;54.24
65384;BME280;51986;52.788;41.368;2023-12-14T03:05:36;100354.59;;;-9.83;53.84
65384;BME280;51986;52.788;41.368;2023-12-14T03:08:03;100356.00;;;-9.92;54.38
65384;BME280;51986;52.788;41.368;2023-12-14T03:10:30;100368.28;;;-9.72;54.55
65384;BME280;51986;52.788;41.368;2023-12-14T03:12:57;100333.78;;;-9.58;53.77
65384;BME280;51986;52.788;41.368;2023-12-14T03:15:24;100343.38;;;-9.65;53.55
65384;BME280;51986;52.788;41.368;2023-12-14T03:17:52;100349.81;;;-9.96;54.34
65384;BME280;51986;52.788;41.368;2023-12-14T03:20:19;100344.88;;;-9.69;53.46
65384;BME280;51986;52.788;41.368;2023-12-14T03:22:46;100319.84;;;-9.84;53.47
65384;BME280;51986;52.788;41.368;2023-12-14T03:25:13;100365.88;;;-9.95;53.84
65384;BME280;51986;52.788;41.368;2023-12-14T03:27:40;100328.88;;;-10.10;54.75
65384;BME280;51986;52.788;41.368;2023-12-14T03:30:07;100371.00;;;-9.95;54.01
65384;BME280;51986;52.788;41.368;2023-12-14T03:32:35;100340.34;;;-10.12;53.94
65384;BME280;51986;52.788;41.368;2023-12-14T03:35:03;100358.31;;;-9.90;54.46
65384;BME280;51986;52.788;41.368;2023-12-14T03:37:30;100360.19;;;-9.69;53.86
65384;BME280;51986;52.788;41.368;2023-12-14T03:39:57;100348.78;;;-9.61;53.59
65384;BME280;51986;52.788;41.368;2023-12-14T03:42:24;100343.44;;;-9.77;54.46
65384;BME280;51986;52.788;41.368;2023-12-14T03:44:51;100298.88;;;-9.86;54.12
65384;BME280;51986;52.788;41.368;2023-12-14T03:47:18;100341.53;;;-9.86;54.23
65384;BME280;51986;52.788;41.368;2023-12-14T03:49:45;100327.34;;;-10.11;54.66
65384;BME280;51986;52.788;41.368;2023-12-14T03:52:13;100344.38;;;-9.83;53.97
65384;BME280;51986;52.788;41.368;2023-12-14T03:54:40;100313.75;;;-9.99;54.54
65384;BME280;51986;52.788;41.368;2023-12-14T03:57:07;100327.19;;;-10.04;54.85
65384;BME280;51986;52.788;41.368;2023-12-14T03:59:38;100312.16;;;-10.17;54.92
65384;BME280;51986;52.788;41.368;2023-12-14T04:02:06;100325.41;;;-10.20;54.63
65384;BME280;51986;52.788;41.368;2023-12-14T04:04:33;100318.09;;;-9.83;54.30
65384;BME280;51986;52.788;41.368;2023-12-14T04:07:07;100320.78;;;-9.90;54.38
65384;BME280;51986;52.788;41.368;2023-12-14T04:09:34;100312.03;;;-10.11;55.04
65384;BME280;51986;52.788;41.368;2023-12-14T04:12:01;100319.59;;;-10.16;55.02
65384;BME280;51986;52.788;41.368;2023-12-14T04:14:29;100335.19;;;-10.00;55.17
65384;BME280;51986;52.788;41.368;2023-12-14T04:16:56;100303.44;;;-10.05;54.45
65384;BME280;51986;52.788;41.368;2023-12-14T04:19:23;100317.38;;;-9.95;54.46
65384;BME280;51986;52.788;41.368;2023-12-14T04:21:50;100326.28;;;-9.98;54.36
65384;BME280;51986;52.788;41.368;2023-12-14T04:24:17;100296.16;;;-10.13;54.68
65384;BME280;51986;52.788;41.368;2023-12-14T04:26:45;100294.28;;;-10.34;55.58
65384;BME280;51986;52.788;41.368;2023-12-14T04:29:11;100315.28;;;-9.98;55.28
65384;BME280;51986;52.788;41.368;2023-12-14T04:31:39;100295.03;;;-10.05;54.76
65384;BME280;51986;52.788;41.368;2023-12-14T04:34:06;100327.84;;;-9.97;54.32
65384;BME280;51986;52.788;41.368;2023-12-14T04:36:33;100315.22;;;-10.04;55.09
65384;BME280;51986;52.788;41.368;2023-12-14T04:39:00;100293.00;;;-10.03;55.58
65384;BME280;51986;52.788;41.368;2023-12-14T04:41:27;100322.66;;;-10.02;55.54
65384;BME280;51986;52.788;41.368;2023-12-14T04:43:55;100311.16;;;-9.88;54.37
65384;BME280;51986;52.788;41.368;2023-12-14T04:46:22;100290.47;;;-9.86;55.25
65384;BME280;51986;52.788;41.368;2023-12-14T04:48:49;100345.66;;;-10.14;55.30
65384;BME280;51986;52.788;41.368;2023-12-14T04:51:16;100272.19;;;-10.29;54.99
65384;BME280;51986;52.788;41.368;2023-12-14T04:53:43;100323.25;;;-10.12;55.02
65384;BME280;51986;52.788;41.368;2023-12-14T04:56:11;100327.03;;;-10.14;55.02
65384;BME280;51986;52.788;41.368;2023-12-14T04:58:39;100331.16;;;-9.96;55.16
65384;BME280;51986;52.788;41.368;2023-12-14T05:01:07;100318.31;;;-10.01;55.47
65384;BME280;51986;52.788;41.368;2023-12-14T05:03:35;100313.25;;;-10.13;55.48
65384;BME280;51986;52.788;41.368;2023-12-14T05:06:02;100333.66;;;-10.13;55.99
65384;BME280;51986;52.788;41.368;2023-12-14T05:08:29;100320.22;;;-10.37;56.13
65384;BME280;51986;52.788;41.368;2023-12-14T05:10:56;100302.75;;;-10.17;56.13
65384;BME280;51986;52.788;41.368;2023-12-14T05:13:24;100316.50;;;-9.84;55.36
65384;BME280;51986;52.788;41.368;2023-12-14T05:15:51;100315.75;;;-10.01;55.89
65384;BME280;51986;52.788;41.368;2023-12-14T05:18:18;100340.38;;;-9.95;55.17
65384;BME280;51986;52.788;41.368;2023-12-14T05:20:46;100331.94;;;-9.96;55.94
65384;BME280;51986;52.788;41.368;2023-12-14T05:23:13;100325.94;;;-9.85;56.10
65384;BME280;51986;52.788;41.368;2023-12-14T05:25:41;100342.75;;;-9.89;55.61
65384;BME280;51986;52.788;41.368;2023-12-14T05:28:08;100333.72;;;-9.96;55.16
65384;BME280;51986;52.788;41.368;2023-12-14T05:30:35;100318.50;;;-10.20;55.50
65384;BME280;51986;52.788;41.368;2023-12-14T05:33:02;100344.38;;;-9.83;55.31
65384;BME280;51986;52.788;41.368;2023-12-14T05:35:30;100345.88;;;-9.53;54.53
65384;BME280;51986;52.788;41.368;2023-12-14T05:37:57;100342.03;;;-9.84;55.11
65384;BME280;51986;52.788;41.368;2023-12-14T05:40:24;100318.41;;;-9.96;54.79
65384;BME280;51986;52.788;41.368;2023-12-14T05:42:51;100331.38;;;-9.81;54.83
65384;BME280;51986;52.788;41.368;2023-12-14T05:45:18;100333.41;;;-9.49;54.38
65384;BME280;51986;52.788;41.368;2023-12-14T05:47:45;100339.91;;;-9.59;54.57
65384;BME280;51986;52.788;41.368;2023-12-14T05:50:12;100353.22;;;-9.57;55.14
65384;BME280;51986;52.788;41.368;2023-12-14T05:52:40;100347.63;;;-9.37;54.33
65384;BME280;51986;52.788;41.368;2023-12-14T05:55:08;100342.59;;;-9.15;53.75
65384;BME280;51986;52.788;41.368;2023-12-14T05:57:36;100375.25;;;-8.78;53.64
65384;BME280;51986;52.788;41.368;2023-12-14T06:00:06;100354.41;;;-9.09;53.08
65384;BME280;51986;52.788;41.368;2023-12-14T06:02:34;100352.25;;;-8.78;52.97
65384;BME280;51986;52.788;41.368;2023-12-14T06:05:01;100337.66;;;-9.00;53.08
65384;BME280;51986;52.788;41.368;2023-12-14T06:07:28;100344.00;;;-9.24;53.30
65384;BME280;51986;52.788;41.368;2023-12-14T06:09:55;100327.31;;;-9.10;53.59
65384;BME280;51986;52.788;41.368;2023-12-14T06:12:22;100347.63;;;-9.20;53.12
65384;BME280;51986;52.788;41.368;2023-12-14T06:14:49;100337.16;;;-9.02;53.52
65384;BME280;51986;52.788;41.368;2023-12-14T06:17:17;100342.44;;;-8.86;53.10
65384;BME280;51986;52.788;41.368;2023-12-14T06:19:44;100328.59;;;-8.90;53.53
65384;BME280;51986;52.788;41.368;2023-12-14T06:22:11;100321.28;;;-8.82;52.35
65384;BME280;51986;52.788;41.368;2023-12-14T06:24:38;100324.44;;;-8.96;53.55
65384;BME280;51986;52.788;41.368;2023-12-14T06:27:05;100347.13;;;-8.78;52.75
65384;BME280;51986;52.788;41.368;2023-12-14T06:29:32;100365.13;;;-8.73;53.05
65384;BME280;51986;52.788;41.368;2023-12-14T06:31:59;100369.75;;;-8.92;53.63
65384;BME280;51986;52.788;41.368;2023-12-14T06:34:26;100362.13;;;-8.65;52.94
65384;BME280;51986;52.788;41.368;2023-12-14T06:36:53;100337.28;;;-8.91;52.89
65384;BME280;51986;52.788;41.368;2023-12-14T06:39:20;100382.06;;;-8.67;52.16
65384;BME280;51986;52.788;41.368;2023-12-14T06:41:47;100354.81;;;-8.78;53.05
65384;BME280;51986;52.788;41.368;2023-12-14T06:44:14;100362.47;;;-8.78;53.60
65384;BME280;51986;52.788;41.368;2023-12-14T06:46:41;100359.91;;;-8.78;53.41
65384;BME280;51986;52.788;41.368;2023-12-14T06:49:08;100356.19;;;-8.92;53.23
65384;BME280;51986;52.788;41.368;2023-12-14T06:51:35;100359.88;;;-8.61;52.72
65384;BME280;51986;52.788;41.368;2023-12-14T06:54:02;100308.41;;;-8.65;52.47
65384;BME280;51986;52.788;41.368;2023-12-14T06:56:30;100358.34;;;-8.62;52.92
65384;BME280;51986;52.788;41.368;2023-12-14T06:58:57;100346.38;;;-8.79;53.13
65384;BME280;51986;52.788;41.368;2023-12-14T07:01:24;100353.44;;;-8.64;53.09
65384;BME280;51986;52.788;41.368;2023-12-14T07:03:51;100349.03;;;-8.90;53.25
65384;BME280;51986;52.788;41.368;2023-12-14T07:06:19;100339.28;;;-8.50;53.02
65384;BME280;51986;52.788;41.368;2023-12-14T07:08:46;100375.47;;;-8.63;53.54
65384;BME280;51986;52.788;41.368;2023-12-14T07:11:13;100350.78;;;-8.52;53.62
65384;BME280;51986;52.788;41.368;2023-12-14T07:13:40;100359.47;;;-8.53;53.29
65384;BME280;51986;52.788;41.368;2023-12-14T07:16:10;100358.75;;;-8.49;52.77
65384;BME280;51986;52.788;41.368;2023-12-14T07:18:38;100331.94;;;-8.19;52.49
65384;BME280;51986;52.788;41.368;2023-12-14T07:21:06;100333.19;;;-8.22;52.34
65384;BME280;51986;52.788;41.368;2023-12-14T07:23:34;100331.44;;;-8.16;52.18
65384;BME280;51986;52.788;41.368;2023-12-14T07:26:01;100347.09;;;-8.39;52.04
65384;BME280;51986;52.788;41.368;2023-12-14T07:28:31;100325.97;;;-8.74;53.36
65384;BME280;51986;52.788;41.368;2023-12-14T07:30:58;100342.59;;;-8.27;52.67
65384;BME280;51986;52.788;41.368;2023-12-14T07:33:25;100334.78;;;-8.15;51.76
65384;BME280;51986;52.788;41.368;2023-12-14T07:35:53;100332.66;;;-7.97;51.62
65384;BME280;51986;52.788;41.368;2023-12-14T07:38:20;100340.78;;;-8.05;51.57
65384;BME280;51986;52.788;41.368;2023-12-14T07:40:47;100333.88;;;-8.04;51.94
65384;BME280;51986;52.788;41.368;2023-12-14T07:43:14;100330.97;;;-7.86;51.72
65384;BME280;51986;52.788;41.368;2023-12-14T07:45:41;100361.97;;;-8.09;52.35
65384;BME280;51986;52.788;41.368;2023-12-14T07:48:08;100341.38;;;-7.92;50.94
65384;BME280;51986;52.788;41.368;2023-12-14T07:50:36;100332.28;;;-8.10;52.12
65384;BME280;51986;52.788;41.368;2023-12-14T07:53:03;100346.78;;;-7.62;50.95
65384;BME280;51986;52.788;41.368;2023-12-14T07:55:31;100351.84;;;-7.99;50.89
65384;BME280;51986;52.788;41.368;2023-12-14T07:57:58;100295.41;;;-7.82;51.57
65384;BME280;51986;52.788;41.368;2023-12-14T08:00:25;100347.25;;;-7.65;51.38
65384;BME280;51986;52.788;41.368;2023-12-14T08:02:52;100363.75;;;-7.13;50.39
65384;BME280;51986;52.788;41.368;2023-12-14T08:05:19;100336.16;;;-7.38;50.33
65384;BME280;51986;52.788;41.368;2023-12-14T08:07:46;100315.94;;;-7.30;50.36
65384;BME280;51986;52.788;41.368;2023-12-14T08:10:14;100355.63;;;-7.42;50.01
65384;BME280;51986;52.788;41.368;2023-12-14T08:12:41;100342.81;;;-7.37;50.15
65384;BME280;51986;52.788;41.368;2023-12-14T08:15:08;100314.75;;;-7.12;50.02
65384;BME280;51986;52.788;41.368;2023-12-14T08:17:35;100288.38;;;-7.07;49.50
65384;BME280;51986;52.788;41.368;2023-12-14T08:20:02;100349.06;;;-7.23;50.29
65384;BME280;51986;52.788;41.368;2023-12-14T08:22:29;100339.41;;;-7.06;50.62
65384;BME280;51986;52.788;41.368;2023-12-14T08:24:56;100304.00;;;-7.14;50.27
65384;BME280;51986;52.788;41.368;2023-12-14T08:27:23;100318.13;;;-7.01;50.05
65384;BME280;51986;52.788;41.368;2023-12-14T08:29:50;100327.53;;;-7.22;50.18
65384;BME280;51986;52.788;41.368;2023-12-14T08:32:17;100319.38;;;-7.61;51.59
65384;BME280;51986;52.788;41.368;2023-12-14T08:34:45;100302.69;;;-7.64;51.91
65384;BME280;51986;52.788;41.368;2023-12-14T08:37:12;100293.91;;;-7.73;52.05
65384;BME280;51986;52.788;41.368;2023-12-14T08:39:39;100282.31;;;-7.49;51.72
65384;BME280;51986;52.788;41.368;2023-12-14T08:42:06;100268.78;;;-7.76;52.34
65384;BME280;51986;52.788;41.368;2023-12-14T08:44:33;100301.88;;;-7.27;52.38
65384;BME280;51986;52.788;41.368;2023-12-14T08:47:00;100283.09;;;-7.43;51.83
65384;BME280;51986;52.788;41.368;2023-12-14T08:49:27;100294.06;;;-7.53;53.26
65384;BME280;51986;52.788;41.368;2023-12-14T08:51:54;100297.28;;;-7.67;53.37
65384;BME280;51986;52.788;41.368;2023-12-14T08:54:21;100269.69;;;-7.55;52.78
65384;BME280;51986;52.788;41.368;2023-12-14T08:56:48;100273.56;;;-7.53;52.62
65384;BME280;51986;52.788;41.368;2023-12-14T08:59:15;100266.66;;;-7.47;52.95
65384;BME280;51986;52.788;41.368;2023-12-14T09:01:43;100275.56;;;-7.60;53.58
65384;BME280;51986;52.788;41.368;2023-12-14T09:04:10;100259.53;;;-7.82;53.37
65384;BME280;51986;52.788;41.368;2023-12-14T09:06:37;100258.31;;;-7.70;54.32
65384;BME280;51986;52.788;41.368;2023-12-14T09:09:04;100279.22;;;-7.40;53.22
65384;BME280;51986;52.788;41.368;2023-12-14T09:11:32;100276.09;;;-7.58;53.77
65384;BME280;51986;52.788;41.368;2023-12-14T09:13:59;100219.41;;;-7.66;53.74
65384;BME280;51986;52.788;41.368;2023-12-14T09:16:26;100244.41;;;-7.41;53.71
65384;BME280;51986;52.788;41.368;2023-12-14T09:18:52;100238.69;;;-7.54;53.48
65384;BME280;51986;52.788;41.368;2023-12-14T09:21:20;100270.47;;;-7.55;53.87
65384;BME280;51986;52.788;41.368;2023-12-14T09:23:53;100267.38;;;-7.57;53.81
65384;BME280;51986;52.788;41.368;2023-12-14T09:26:20;100258.72;;;-7.46;53.81
65384;BME280;51986;52.788;41.368;2023-12-14T09:28:47;100246.47;;;-7.33;53.09
65384;BME280;51986;52.788;41.368;2023-12-14T09:31:14;100272.75;;;-7.58;53.09
65384;BME280;51986;52.788;41.368;2023-12-14T09:33:41;100268.91;;;-7.56;53.46
65384;BME280;51986;52.788;41.368;2023-12-14T09:36:09;100288.06;;;-7.16;52.58
65384;BME280;51986;52.788;41.368;2023-12-14T09:38:36;100257.13;;;-6.99;52.22
65384;BME280;51986;52.788;41.368;2023-12-14T09:41:03;100252.28;;;-6.96;52.18
65384;BME280;51986;52.788;41.368;2023-12-14T09:43:30;100257.22;;;-7.31;53.49
65384;BME280;51986;52.788;41.368;2023-12-14T09:45:58;100275.56;;;-7.07;53.12
65384;BME280;51986;52.788;41.368;2023-12-14T09:48:26;100281.47;;;-7.02;52.90
65384;BME280;51986;52.788;41.368;2023-12-14T09:50:55;100272.25;;;-7.03;53.02
65384;BME280;51986;52.788;41.368;2023-12-14T09:53:22;100256.34;;;-7.05;53.09
65384;BME280;51986;52.788;41.368;2023-12-14T09:55:49;100268.63;;;-7.07;52.75
65384;BME280;51986;52.788;41.368;2023-12-14T09:58:17;100270.25;;;-6.90;52.83
65384;BME280;51986;52.788;41.368;2023-12-14T10:00:43;100257.91;;;-6.94;52.85
65384;BME280;51986;52.788;41.368;2023-12-14T10:03:25;100239.97;;;-6.88;53.07
65384;BME280;51986;52.788;41.368;2023-12-14T10:05:56;100229.69;;;-6.94;53.32
65384;BME280;51986;52.788;41.368;2023-12-14T10:08:25;100237.75;;;-7.32;54.17
65384;BME280;51986;52.788;41.368;2023-12-14T10:10:54;100227.53;;;-7.22;54.33
65384;BME280;51986;52.788;41.368;2023-12-14T10:13:39;100239.13;;;-7.09;54.10
65384;BME280;51986;52.788;41.368;2023-12-14T10:16:07;100214.53;;;-7.10;54.84
65384;BME280;51986;52.788;41.368;2023-12-14T10:18:34;100232.81;;;-7.49;55.53
65384;BME280;51986;52.788;41.368;2023-12-14T10:21:01;100220.81;;;-7.43;55.72
65384;BME280;51986;52.788;41.368;2023-12-14T10:23:29;100226.09;;;-7.60;56.01
65384;BME280;51986;52.788;41.368;2023-12-14T10:25:56;100215.44;;;-7.42;55.49
65384;BME280;51986;52.788;41.368;2023-12-14T10:28:24;100213.53;;;-7.62;56.01
65384;BME280;51986;52.788;41.368;2023-12-14T10:30:51;100226.50;;;-7.26;56.00
65384;BME280;51986;52.788;41.368;2023-12-14T10:33:18;100216.78;;;-7.19;55.52
65384;BME280;51986;52.788;41.368;2023-12-14T10:35:46;100203.91;;;-7.34;55.50
65384;BME280;51986;52.788;41.368;2023-12-14T10:38:15;100182.28;;;-7.59;56.23
65384;BME280;51986;52.788;41.368;2023-12-14T10:40:44;100217.22;;;-7.42;55.50
65384;BME280;51986;52.788;41.368;2023-12-14T10:43:12;100194.25;;;-7.12;55.07
65384;BME280;51986;52.788;41.368;2023-12-14T10:45:43;100181.50;;;-6.81;54.84
65384;BME280;51986;52.788;41.368;2023-12-14T10:48:12;100186.84;;;-7.03;55.03
65384;BME280;51986;52.788;41.368;2023-12-14T10:50:42;100181.06;;;-7.41;55.63
65384;BME280;51986;52.788;41.368;2023-12-14T10:53:10;100176.16;;;-7.58;56.34
65384;BME280;51986;52.788;41.368;2023-12-14T10:55:41;100173.06;;;-7.60;56.42
65384;BME280;51986;52.788;41.368;2023-12-14T10:58:09;100188.72;;;-7.56;55.87
65384;BME280;51986;52.788;41.368;2023-12-14T11:00:38;100188.75;;;-7.41;56.57
65384;BME280;51986;52.788;41.368;2023-12-14T11:03:05;100187.22;;;-7.47;55.61
65384;BME280;51986;52.788;41.368;2023-12-14T11:05:34;100166.88;;;-7.64;56.47
65384;BME280;51986;52.788;41.368;2023-12-14T11:08:05;100185.72;;;-7.43;56.35
65384;BME280;51986;52.788;41.368;2023-12-14T11:10:43;100186.13;;;-8.04;57.32
65384;BME280;51986;52.788;41.368;2023-12-14T11:13:19;100200.78;;;-7.94;56.97
65384;BME280;51986;52.788;41.368;2023-12-14T11:15:51;100197.84;;;-8.13;57.77
65384;BME280;51986;52.788;41.368;2023-12-14T11:25:57;100167.25;;;-7.92;57.19
65384;BME280;51986;52.788;41.368;2023-12-14T11:28:32;100176.53;;;-7.86;57.84
65384;BME280;51986;52.788;41.368;2023-12-14T11:31:00;100215.38;;;-7.94;57.31
65384;BME280;51986;52.788;41.368;2023-12-14T11:33:27;100190.59;;;-7.84;57.22
65384;BME280;51986;52.788;41.368;2023-12-14T11:35:55;100209.13;;;-8.09;58.20
65384;BME280;51986;52.788;41.368;2023-12-14T11:38:22;100193.16;;;-7.84;58.15
65384;BME280;51986;52.788;41.368;2023-12-14T11:40:50;100194.38;;;-7.97;57.80
65384;BME280;51986;52.788;41.368;2023-12-14T11:43:17;100200.66;;;-7.77;57.42
65384;BME280;51986;52.788;41.368;2023-12-14T11:45:44;100183.88;;;-7.95;57.51
65384;BME280;51986;52.788;41.368;2023-12-14T11:48:12;100174.72;;;-7.86;57.55
65384;BME280;51986;52.788;41.368;2023-12-14T11:50:41;100186.06;;;-8.14;58.34
65384;BME280;51986;52.788;41.368;2023-12-14T11:53:10;100189.72;;;-8.05;57.56
65384;BME280;51986;52.788;41.368;2023-12-14T11:55:40;100156.94;;;-8.03;58.39
65384;BME280;51986;52.788;41.368;2023-12-14T11:58:08;100172.19;;;-7.81;58.06
65384;BME280;51986;52.788;41.368;2023-12-14T12:00:38;100189.19;;;-8.02;58.47
65384;BME280;51986;52.788;41.368;2023-12-14T12:03:13;100176.53;;;-7.86;58.10
65384;BME280;51986;52.788;41.368;2023-12-14T12:05:43;100204.09;;;-7.56;57.73
65384;BME280;51986;52.788;41.368;2023-12-14T12:08:11;100191.47;;;-7.68;58.21
65384;BME280;51986;52.788;41.368;2023-12-14T12:10:40;100187.31;;;-7.79;57.60
65384;BME280;51986;52.788;41.368;2023-12-14T12:13:19;100191.75;;;-7.59;57.64
65384;BME280;51986;52.788;41.368;2023-12-14T12:15:47;100178.56;;;-7.83;58.34
65384;BME280;51986;52.788;41.368;2023-12-14T12:18:17;100190.72;;;-7.63;57.51
65384;BME280;51986;52.788;41.368;2023-12-14T12:20:45;100190.31;;;-7.87;58.26
65384;BME280;51986;52.788;41.368;2023-12-14T12:23:12;100158.63;;;-7.81;58.02
65384;BME280;51986;52.788;41.368;2023-12-14T12:25:39;100200.03;;;-7.47;57.43
65384;BME280;51986;52.788;41.368;2023-12-14T12:28:07;100177.69;;;-7.62;57.59
65384;BME280;51986;52.788;41.368;2023-12-14T12:30:34;100140.75;;;-7.71;57.41
65384;BME280;51986;52.788;41.368;2023-12-14T12:33:06;100174.50;;;-7.79;58.20
65384;BME280;51986;52.788;41.368;2023-12-14T12:35:33;100162.78;;;-7.65;57.84
65384;BME280;51986;52.788;41.368;2023-12-14T12:38:00;100187.31;;;-7.79;57.96
65384;BME280;51986;52.788;41.368;2023-12-14T12:40:27;100189.06;;;-7.85;58.68
65384;BME280;51986;52.788;41.368;2023-12-14T12:42:54;100179.16;;;-7.71;58.21
65384;BME280;51986;52.788;41.368;2023-12-14T12:45:21;100190.78;;;-7.53;58.52